sensor_id;sensor_type;location;lat;lon;timestamp;temperature;humidity
8684;DHT22;4379;59.744;18.206;2022-10-23T00:01:13;5.80;99.90
8684;DHT22;4379;59.744;18.206;2022-10-23T00:03:41;5.80;99.90
8684;DHT22;4379;59.744;18.206;2022-10-23T00:06:10;5.80;99.90
8684;DHT22;4379;59.744;18.206;2022-10-23T00:08:38;5.90;99.90
8684;DHT22;4379;59.744;18.206;2022-10-23T00:11:11;5.90;99.90
8684;DHT22;4379;59.744;18.206;2022-10-23T00:13:39;5.80;99.90
8684;DHT22;4379;59.744;18.206;2022-10-23T00:16:07;5.80;99.90
8684;DHT22;4379;59.744;18.206;2022-10-23T00:18:36;5.90;99.90
8684;DHT22;4379;59.744;18.206;2022-10-23T00:21:05;5.80;99.90
8684;DHT22;4379;59.744;18.206;2022-10-23T00:23:33;5.70;99.90
8684;DHT22;4379;59.744;18.206;2022-10-23T00:26:01;5.70;99.90
8684;DHT22;4379;59.744;18.206;2022-10-23T00:28:29;5.80;99.90
8684;DHT22;4379;59.744;18.206;2022-10-23T00:30:56;5.80;99.90
8684;DHT22;4379;59.744;18.206;2022-10-23T00:33:23;5.80;99.90
8684;DHT22;4379;59.744;18.206;2022-10-23T00:35:50;5.80;99.90
8684;DHT22;4379;59.744;18.206;2022-10-23T00:38:18;5.80;99.90
8684;DHT22;4379;59.744;18.206;2022-10-23T00:40:45;5.70;99.90
8684;DHT22;4379;59.744;18.206;2022-10-23T00:43:22;5.80;99.90
8684;DHT22;4379;59.744;18.206;2022-10-23T00:45:49;5.70;99.90
8684;DHT22;4379;59.744;18.206;2022-10-23T00:48:17;5.80;99.90
8684;DHT22;4379;59.744;18.206;2022-10-23T00:50:46;5.80;99.90
8684;DHT22;4379;59.744;18.206;2022-10-23T00:53:15;5.80;99.90
8684;DHT22;4379;59.744;18.206;2022-10-23T00:55:44;5.90;99.90
8684;DHT22;4379;59.744;18.206;2022-10-23T00:58:14;6.00;99.90
8684;DHT22;4379;59.744;18.206;2022-10-23T01:00:45;5.90;99.90
8684;DHT22;4379;59.744;18.206;2022-10-23T01:03:14;5.90;99.90
8684;DHT22;4379;59.744;18.206;2022-10-23T01:11:17;5.50;99.90
8684;DHT22;4379;59.744;18.206;2022-10-23T01:16:59;5.50;99.90
8684;DHT22;4379;59.744;18.206;2022-10-23T01:28:10;5.50;99.90
8684;DHT22;4379;59.744;18.206;2022-10-23T01:30:43;5.50;99.90
8684;DHT22;4379;59.744;18.206;2022-10-23T01:33:21;5.50;99.90
8684;DHT22;4379;59.744;18.206;2022-10-23T01:36:03;5.50;99.90
8684;DHT22;4379;59.744;18.206;2022-10-23T01:41:14;5.40;99.90
8684;DHT22;4379;59.744;18.206;2022-10-23T01:43:47;5.20;99.90
8684;DHT22;4379;59.744;18.206;2022-10-23T01:46:18;5.20;99.90
8684;DHT22;4379;59.744;18.206;2022-10-23T01:48:50;5.10;99.90
8684;DHT22;4379;59.744;18.206;2022-10-23T01:51:20;5.00;99.90
8684;DHT22;4379;59.744;18.206;2022-10-23T01:53:50;4.90;99.90
8684;DHT22;4379;59.744;18.206;2022-10-23T01:56:20;4.90;99.90
8684;DHT22;4379;59.744;18.206;2022-10-23T01:58:51;4.80;99.90
8684;DHT22;4379;59.744;18.206;2022-10-23T02:01:21;4.70;99.90
8684;DHT22;4379;59.744;18.206;2022-10-23T02:03:51;4.80;99.90
8684;DHT22;4379;59.744;18.206;2022-10-23T02:06:19;4.80;99.90
8684;DHT22;4379;59.744;18.206;2022-10-23T02:08:46;4.80;99.90
8684;DHT22;4379;59.744;18.206;2022-10-23T02:11:19;4.80;99.90
8684;DHT22;4379;59.744;18.206;2022-10-23T02:14:01;4.90;99.90
8684;DHT22;4379;59.744;18.206;2022-10-23T02:16:45;4.70;99.90
8684;DHT22;4379;59.744;18.206;2022-10-23T02:19:27;4.80;99.90
8684;DHT22;4379;59.744;18.206;2022-10-23T02:22:08;4.70;99.90
8684;DHT22;4379;59.744;18.206;2022-10-23T02:24:48;4.60;99.90
8684;DHT22;4379;59.744;18.206;2022-10-23T02:27:36;4.40;99.90
8684;DHT22;4379;59.744;18.206;2022-10-23T02:30:10;4.20;99.90
8684;DHT22;4379;59.744;18.206;2022-10-23T02:32:43;4.30;99.90
8684;DHT22;4379;59.744;18.206;2022-10-23T02:35:12;4.20;99.90
8684;DHT22;4379;59.744;18.206;2022-10-23T02:37:39;4.20;99.90
8684;DHT22;4379;59.744;18.206;2022-10-23T02:40:08;4.20;99.90
8684;DHT22;4379;59.744;18.206;2022-10-23T02:42:44;4.10;99.90
8684;DHT22;4379;59.744;18.206;2022-10-23T02:50:43;4.10;99.90
8684;DHT22;4379;59.744;18.206;2022-10-23T02:53:34;4.20;99.90
8684;DHT22;4379;59.744;18.206;2022-10-23T02:58:44;4.30;99.90
8684;DHT22;4379;59.744;18.206;2022-10-23T03:01:20;4.30;99.90
8684;DHT22;4379;59.744;18.206;2022-10-23T03:03:54;4.30;99.90
8684;DHT22;4379;59.744;18.206;2022-10-23T03:06:23;4.20;99.90
8684;DHT22;4379;59.744;18.206;2022-10-23T03:08:59;4.20;99.90
8684;DHT22;4379;59.744;18.206;2022-10-23T03:11:27;4.30;99.90
8684;DHT22;4379;59.744;18.206;2022-10-23T03:13:55;4.10;99.90
8684;DHT22;4379;59.744;18.206;2022-10-23T03:16:22;4.00;99.90
8684;DHT22;4379;59.744;18.206;2022-10-23T03:18:50;4.00;99.90
8684;DHT22;4379;59.744;18.206;2022-10-23T03:21:17;3.90;99.90
8684;DHT22;4379;59.744;18.206;2022-10-23T03:23:44;3.90;99.90
8684;DHT22;4379;59.744;18.206;2022-10-23T03:26:12;3.90;99.90
8684;DHT22;4379;59.744;18.206;2022-10-23T03:28:39;3.90;99.90
8684;DHT22;4379;59.744;18.206;2022-10-23T03:31:06;3.80;99.90
8684;DHT22;4379;59.744;18.206;2022-10-23T03:33:33;3.80;99.90
8684;DHT22;4379;59.744;18.206;2022-10-23T03:36:00;3.70;99.90
8684;DHT22;4379;59.744;18.206;2022-10-23T03:38:28;3.80;99.90
8684;DHT22;4379;59.744;18.206;2022-10-23T03:40:55;3.90;99.90
8684;DHT22;4379;59.744;18.206;2022-10-23T03:43:22;4.00;99.90
8684;DHT22;4379;59.744;18.206;2022-10-23T03:45:49;3.90;99.90
8684;DHT22;4379;59.744;18.206;2022-10-23T03:48:17;3.90;99.90
8684;DHT22;4379;59.744;18.206;2022-10-23T03:50:45;3.80;99.90
8684;DHT22;4379;59.744;18.206;2022-10-23T03:53:12;3.90;99.90
8684;DHT22;4379;59.744;18.206;2022-10-23T03:55:39;3.90;99.90
8684;DHT22;4379;59.744;18.206;2022-10-23T03:58:06;3.80;99.90
8684;DHT22;4379;59.744;18.206;2022-10-23T04:00:34;3.90;99.90
8684;DHT22;4379;59.744;18.206;2022-10-23T04:03:01;3.80;99.90
8684;DHT22;4379;59.744;18.206;2022-10-23T04:05:28;3.90;99.90
8684;DHT22;4379;59.744;18.206;2022-10-23T04:07:56;3.70;99.90
8684;DHT22;4379;59.744;18.206;2022-10-23T04:10:23;3.70;99.90
8684;DHT22;4379;59.744;18.206;2022-10-23T04:12:50;3.80;99.90
8684;DHT22;4379;59.744;18.206;2022-10-23T04:15:18;3.90;99.90
8684;DHT22;4379;59.744;18.206;2022-10-23T04:17:45;3.80;99.90
8684;DHT22;4379;59.744;18.206;2022-10-23T04:20:12;3.60;99.90
8684;DHT22;4379;59.744;18.206;2022-10-23T04:22:40;3.60;99.90
8684;DHT22;4379;59.744;18.206;2022-10-23T04:25:08;3.50;99.90
8684;DHT22;4379;59.744;18.206;2022-10-23T04:27:35;3.60;99.90
8684;DHT22;4379;59.744;18.206;2022-10-23T04:30:03;3.70;99.90
8684;DHT22;4379;59.744;18.206;2022-10-23T04:32:30;3.70;99.90
8684;DHT22;4379;59.744;18.206;2022-10-23T04:34:57;3.70;99.90
8684;DHT22;4379;59.744;18.206;2022-10-23T04:37:25;3.70;99.90
8684;DHT22;4379;59.744;18.206;2022-10-23T04:39:54;3.80;99.90
8684;DHT22;4379;59.744;18.206;2022-10-23T04:42:21;3.80;99.90
8684;DHT22;4379;59.744;18.206;2022-10-23T04:44:48;3.80;99.90
8684;DHT22;4379;59.744;18.206;2022-10-23T04:47:15;3.90;99.90
8684;DHT22;4379;59.744;18.206;2022-10-23T04:49:42;3.90;99.90
8684;DHT22;4379;59.744;18.206;2022-10-23T04:52:10;3.70;99.90
8684;DHT22;4379;59.744;18.206;2022-10-23T04:54:38;3.70;99.90
8684;DHT22;4379;59.744;18.206;2022-10-23T04:57:05;3.70;99.90
8684;DHT22;4379;59.744;18.206;2022-10-23T04:59:33;3.80;99.90
8684;DHT22;4379;59.744;18.206;2022-10-23T05:02:01;3.80;99.90
8684;DHT22;4379;59.744;18.206;2022-10-23T05:04:28;3.90;99.90
8684;DHT22;4379;59.744;18.206;2022-10-23T05:06:55;3.90;99.90
8684;DHT22;4379;59.744;18.206;2022-10-23T05:09:22;3.70;99.90
8684;DHT22;4379;59.744;18.206;2022-10-23T05:11:50;3.80;99.90
8684;DHT22;4379;59.744;18.206;2022-10-23T05:14:17;3.70;99.90
8684;DHT22;4379;59.744;18.206;2022-10-23T05:17:01;3.70;99.90
8684;DHT22;4379;59.744;18.206;2022-10-23T05:19:33;3.70;99.90
8684;DHT22;4379;59.744;18.206;2022-10-23T05:22:04;3.70;99.90
8684;DHT22;4379;59.744;18.206;2022-10-23T05:24:31;3.60;99.90
8684;DHT22;4379;59.744;18.206;2022-10-23T05:26:59;3.60;99.90
8684;DHT22;4379;59.744;18.206;2022-10-23T05:29:26;3.70;99.90
8684;DHT22;4379;59.744;18.206;2022-10-23T05:31:57;3.80;99.90
8684;DHT22;4379;59.744;18.206;2022-10-23T05:34:26;3.70;99.90
8684;DHT22;4379;59.744;18.206;2022-10-23T05:36:55;3.80;99.90
8684;DHT22;4379;59.744;18.206;2022-10-23T05:39:23;3.70;99.90
8684;DHT22;4379;59.744;18.206;2022-10-23T05:41:50;3.60;99.90
8684;DHT22;4379;59.744;18.206;2022-10-23T05:44:18;3.60;99.90
8684;DHT22;4379;59.744;18.206;2022-10-23T05:46:45;3.70;99.90
8684;DHT22;4379;59.744;18.206;2022-10-23T05:49:13;3.60;99.90
8684;DHT22;4379;59.744;18.206;2022-10-23T05:51:40;3.50;99.90
8684;DHT22;4379;59.744;18.206;2022-10-23T05:54:08;3.50;99.90
8684;DHT22;4379;59.744;18.206;2022-10-23T05:56:38;3.60;99.90
8684;DHT22;4379;59.744;18.206;2022-10-23T05:59:07;3.60;99.90
8684;DHT22;4379;59.744;18.206;2022-10-23T06:01:36;3.60;99.90
8684;DHT22;4379;59.744;18.206;2022-10-23T06:04:04;3.70;99.90
8684;DHT22;4379;59.744;18.206;2022-10-23T06:06:31;3.60;99.90
8684;DHT22;4379;59.744;18.206;2022-10-23T06:08:59;3.70;99.90
8684;DHT22;4379;59.744;18.206;2022-10-23T06:11:26;3.60;99.90
8684;DHT22;4379;59.744;18.206;2022-10-23T06:13:53;3.60;99.90
8684;DHT22;4379;59.744;18.206;2022-10-23T06:16:23;3.60;99.90
8684;DHT22;4379;59.744;18.206;2022-10-23T06:18:53;3.60;99.90
8684;DHT22;4379;59.744;18.206;2022-10-23T06:21:21;3.60;99.90
8684;DHT22;4379;59.744;18.206;2022-10-23T06:23:48;3.70;99.90
8684;DHT22;4379;59.744;18.206;2022-10-23T06:26:17;3.40;99.90
8684;DHT22;4379;59.744;18.206;2022-10-23T06:28:45;3.40;99.90
8684;DHT22;4379;59.744;18.206;2022-10-23T06:31:14;3.40;99.90
8684;DHT22;4379;59.744;18.206;2022-10-23T06:33:42;3.30;99.90
8684;DHT22;4379;59.744;18.206;2022-10-23T06:36:09;3.30;99.90
8684;DHT22;4379;59.744;18.206;2022-10-23T06:38:37;3.40;99.90
8684;DHT22;4379;59.744;18.206;2022-10-23T06:41:13;3.50;99.90
8684;DHT22;4379;59.744;18.206;2022-10-23T06:43:41;3.60;99.90
8684;DHT22;4379;59.744;18.206;2022-10-23T06:46:08;3.50;99.90
8684;DHT22;4379;59.744;18.206;2022-10-23T06:48:36;3.50;99.90
8684;DHT22;4379;59.744;18.206;2022-10-23T06:51:06;3.50;99.90
8684;DHT22;4379;59.744;18.206;2022-10-23T06:53:34;3.60;99.90
8684;DHT22;4379;59.744;18.206;2022-10-23T06:56:03;3.50;99.90
8684;DHT22;4379;59.744;18.206;2022-10-23T06:58:32;3.50;99.90
8684;DHT22;4379;59.744;18.206;2022-10-23T07:01:05;3.40;99.90
8684;DHT22;4379;59.744;18.206;2022-10-23T07:03:34;3.30;99.90
8684;DHT22;4379;59.744;18.206;2022-10-23T07:06:04;3.30;99.90
8684;DHT22;4379;59.744;18.206;2022-10-23T07:08:32;3.30;99.90
8684;DHT22;4379;59.744;18.206;2022-10-23T07:11:04;3.50;99.90
8684;DHT22;4379;59.744;18.206;2022-10-23T07:13:33;3.60;99.90
8684;DHT22;4379;59.744;18.206;2022-10-23T07:16:15;3.70;99.90
8684;DHT22;4379;59.744;18.206;2022-10-23T07:18:44;3.80;99.90
8684;DHT22;4379;59.744;18.206;2022-10-23T07:21:12;3.70;99.90
8684;DHT22;4379;59.744;18.206;2022-10-23T07:23:40;3.70;99.90
8684;DHT22;4379;59.744;18.206;2022-10-23T07:26:13;3.50;99.90
8684;DHT22;4379;59.744;18.206;2022-10-23T07:28:45;3.70;99.90
8684;DHT22;4379;59.744;18.206;2022-10-23T07:31:13;3.70;99.90
8684;DHT22;4379;59.744;18.206;2022-10-23T07:33:40;3.60;99.90
8684;DHT22;4379;59.744;18.206;2022-10-23T07:36:09;3.60;99.90
8684;DHT22;4379;59.744;18.206;2022-10-23T07:38:36;3.70;99.90
8684;DHT22;4379;59.744;18.206;2022-10-23T07:41:03;3.70;99.90
8684;DHT22;4379;59.744;18.206;2022-10-23T07:43:37;3.70;99.90
8684;DHT22;4379;59.744;18.206;2022-10-23T07:46:04;3.50;99.90
8684;DHT22;4379;59.744;18.206;2022-10-23T07:48:35;3.50;99.90
8684;DHT22;4379;59.744;18.206;2022-10-23T07:51:12;3.50;99.90
8684;DHT22;4379;59.744;18.206;2022-10-23T07:53:40;3.50;99.90
8684;DHT22;4379;59.744;18.206;2022-10-23T07:56:24;3.40;99.90
8684;DHT22;4379;59.744;18.206;2022-10-23T07:58:52;3.50;99.90
8684;DHT22;4379;59.744;18.206;2022-10-23T08:01:40;3.70;99.90
8684;DHT22;4379;59.744;18.206;2022-10-23T08:04:13;3.80;99.90
8684;DHT22;4379;59.744;18.206;2022-10-23T08:06:40;3.70;99.90
8684;DHT22;4379;59.744;18.206;2022-10-23T08:09:07;3.80;99.90
8684;DHT22;4379;59.744;18.206;2022-10-23T08:11:35;3.80;99.90
8684;DHT22;4379;59.744;18.206;2022-10-23T08:14:04;3.90;99.90
8684;DHT22;4379;59.744;18.206;2022-10-23T08:16:33;4.20;99.90
8684;DHT22;4379;59.744;18.206;2022-10-23T08:19:02;4.30;99.90
8684;DHT22;4379;59.744;18.206;2022-10-23T08:21:29;4.20;99.90
8684;DHT22;4379;59.744;18.206;2022-10-23T08:23:57;4.30;99.90
8684;DHT22;4379;59.744;18.206;2022-10-23T08:26:26;4.10;99.90
8684;DHT22;4379;59.744;18.206;2022-10-23T08:29:00;4.00;99.90
8684;DHT22;4379;59.744;18.206;2022-10-23T08:31:27;4.20;99.90
8684;DHT22;4379;59.744;18.206;2022-10-23T08:33:54;4.20;99.90
8684;DHT22;4379;59.744;18.206;2022-10-23T08:36:26;4.50;99.90
8684;DHT22;4379;59.744;18.206;2022-10-23T08:38:55;4.80;99.90
8684;DHT22;4379;59.744;18.206;2022-10-23T08:41:38;5.00;99.90
8684;DHT22;4379;59.744;18.206;2022-10-23T08:47:02;4.60;99.90
8684;DHT22;4379;59.744;18.206;2022-10-23T08:49:59;4.50;99.90
8684;DHT22;4379;59.744;18.206;2022-10-23T08:52:35;4.20;99.90
8684;DHT22;4379;59.744;18.206;2022-10-23T08:55:25;4.00;99.90
8684;DHT22;4379;59.744;18.206;2022-10-23T08:58:30;4.30;99.90
8684;DHT22;4379;59.744;18.206;2022-10-23T09:00:50;4.60;99.90
8684;DHT22;4379;59.744;18.206;2022-10-23T09:03:18;4.80;99.90
8684;DHT22;4379;59.744;18.206;2022-10-23T09:06:34;4.90;99.90
8684;DHT22;4379;59.744;18.206;2022-10-23T09:19:29;4.60;99.90
8684;DHT22;4379;59.744;18.206;2022-10-23T09:21:58;4.50;99.90
8684;DHT22;4379;59.744;18.206;2022-10-23T09:24:26;4.40;99.90
8684;DHT22;4379;59.744;18.206;2022-10-23T09:26:58;4.20;99.90
8684;DHT22;4379;59.744;18.206;2022-10-23T09:29:32;4.60;99.90
8684;DHT22;4379;59.744;18.206;2022-10-23T09:32:05;5.00;99.90
8684;DHT22;4379;59.744;18.206;2022-10-23T09:34:33;5.50;99.90
8684;DHT22;4379;59.744;18.206;2022-10-23T09:37:14;5.90;99.90
8684;DHT22;4379;59.744;18.206;2022-10-23T09:39:43;6.20;99.90
8684;DHT22;4379;59.744;18.206;2022-10-23T09:42:24;6.10;99.90
8684;DHT22;4379;59.744;18.206;2022-10-23T09:44:53;5.50;99.90
8684;DHT22;4379;59.744;18.206;2022-10-23T09:47:23;4.90;99.90
8684;DHT22;4379;59.744;18.206;2022-10-23T09:49:52;4.80;99.90
8684;DHT22;4379;59.744;18.206;2022-10-23T09:52:38;5.00;99.90
8684;DHT22;4379;59.744;18.206;2022-10-23T09:55:21;5.00;99.90
8684;DHT22;4379;59.744;18.206;2022-10-23T09:57:50;4.90;99.90
8684;DHT22;4379;59.744;18.206;2022-10-23T10:00:24;4.80;99.90
8684;DHT22;4379;59.744;18.206;2022-10-23T10:03:00;4.80;99.90
8684;DHT22;4379;59.744;18.206;2022-10-23T10:05:32;4.90;99.90
8684;DHT22;4379;59.744;18.206;2022-10-23T10:10:42;4.80;99.90
8684;DHT22;4379;59.744;18.206;2022-10-23T10:16:18;4.60;99.90
8684;DHT22;4379;59.744;18.206;2022-10-23T10:19:00;4.60;99.90
8684;DHT22;4379;59.744;18.206;2022-10-23T10:21:35;4.60;99.90
8684;DHT22;4379;59.744;18.206;2022-10-23T10:38:01;4.90;99.90
8684;DHT22;4379;59.744;18.206;2022-10-23T10:40:33;4.90;99.90
8684;DHT22;4379;59.744;18.206;2022-10-23T10:45:48;5.10;99.90
8684;DHT22;4379;59.744;18.206;2022-10-23T10:56:11;5.30;99.90
8684;DHT22;4379;59.744;18.206;2022-10-23T10:58:52;5.30;99.90
8684;DHT22;4379;59.744;18.206;2022-10-23T11:01:27;5.50;99.90
8684;DHT22;4379;59.744;18.206;2022-10-23T11:07:07;5.70;99.90
8684;DHT22;4379;59.744;18.206;2022-10-23T11:09:35;5.80;99.90
8684;DHT22;4379;59.744;18.206;2022-10-23T11:12:04;5.90;99.90
8684;DHT22;4379;59.744;18.206;2022-10-23T11:14:33;6.00;99.90
8684;DHT22;4379;59.744;18.206;2022-10-23T11:17:31;6.20;99.90
8684;DHT22;4379;59.744;18.206;2022-10-23T11:20:34;6.10;99.90
8684;DHT22;4379;59.744;18.206;2022-10-23T11:26:04;6.30;99.90
8684;DHT22;4379;59.744;18.206;2022-10-23T11:29:08;6.10;99.90
8684;DHT22;4379;59.744;18.206;2022-10-23T11:37:21;6.40;99.90
8684;DHT22;4379;59.744;18.206;2022-10-23T11:42:54;6.60;99.90
8684;DHT22;4379;59.744;18.206;2022-10-23T11:45:39;6.70;99.90
8684;DHT22;4379;59.744;18.206;2022-10-23T11:50:52;6.80;99.90
8684;DHT22;4379;59.744;18.206;2022-10-23T11:53:25;6.90;99.90
8684;DHT22;4379;59.744;18.206;2022-10-23T11:58:54;7.10;99.90
8684;DHT22;4379;59.744;18.206;2022-10-23T12:01:42;7.10;99.90
8684;DHT22;4379;59.744;18.206;2022-10-23T12:06:48;7.20;99.90
8684;DHT22;4379;59.744;18.206;2022-10-23T12:12:13;7.20;99.90
8684;DHT22;4379;59.744;18.206;2022-10-23T12:14:49;7.20;99.90
8684;DHT22;4379;59.744;18.206;2022-10-23T12:17:29;7.20;99.90
8684;DHT22;4379;59.744;18.206;2022-10-23T12:22:46;7.40;99.90
8684;DHT22;4379;59.744;18.206;2022-10-23T12:31:21;7.50;99.90
8684;DHT22;4379;59.744;18.206;2022-10-23T12:34:02;7.60;99.90
8684;DHT22;4379;59.744;18.206;2022-10-23T12:39:29;7.70;99.90
8684;DHT22;4379;59.744;18.206;2022-10-23T12:41:58;7.90;99.90
8684;DHT22;4379;59.744;18.206;2022-10-23T12:44:25;7.90;99.90
8684;DHT22;4379;59.744;18.206;2022-10-23T12:46:58;7.90;99.90
8684;DHT22;4379;59.744;18.206;2022-10-23T12:49:28;7.80;99.90
8684;DHT22;4379;59.744;18.206;2022-10-23T12:52:02;7.70;99.90
8684;DHT22;4379;59.744;18.206;2022-10-23T12:54:32;7.60;99.90
8684;DHT22;4379;59.744;18.206;2022-10-23T12:57:22;7.60;99.90
8684;DHT22;4379;59.744;18.206;2022-10-23T12:59:57;7.70;99.90
8684;DHT22;4379;59.744;18.206;2022-10-23T13:02:28;7.80;99.90
8684;DHT22;4379;59.744;18.206;2022-10-23T13:05:01;8.00;99.90
8684;DHT22;4379;59.744;18.206;2022-10-23T13:07:34;8.00;99.90
8684;DHT22;4379;59.744;18.206;2022-10-23T13:10:04;8.00;99.90
8684;DHT22;4379;59.744;18.206;2022-10-23T13:12:35;8.00;99.90
8684;DHT22;4379;59.744;18.206;2022-10-23T13:17:39;8.10;99.90
8684;DHT22;4379;59.744;18.206;2022-10-23T13:22:55;8.10;99.90
8684;DHT22;4379;59.744;18.206;2022-10-23T13:25:35;8.10;99.90
8684;DHT22;4379;59.744;18.206;2022-10-23T13:28:21;8.10;99.90
8684;DHT22;4379;59.744;18.206;2022-10-23T13:31:03;8.00;99.90
8684;DHT22;4379;59.744;18.206;2022-10-23T13:33:37;7.90;99.90
8684;DHT22;4379;59.744;18.206;2022-10-23T13:36:17;7.90;99.90
8684;DHT22;4379;59.744;18.206;2022-10-23T13:38:46;7.80;99.90
8684;DHT22;4379;59.744;18.206;2022-10-23T13:41:18;7.60;99.90
8684;DHT22;4379;59.744;18.206;2022-10-23T13:43:47;7.60;99.90
8684;DHT22;4379;59.744;18.206;2022-10-23T13:46:20;7.40;99.90
8684;DHT22;4379;59.744;18.206;2022-10-23T13:48:48;7.40;99.90
8684;DHT22;4379;59.744;18.206;2022-10-23T13:51:21;7.30;99.90
8684;DHT22;4379;59.744;18.206;2022-10-23T13:53:50;7.20;99.90
8684;DHT22;4379;59.744;18.206;2022-10-23T13:56:20;7.20;99.90
8684;DHT22;4379;59.744;18.206;2022-10-23T13:58:47;7.00;99.90
8684;DHT22;4379;59.744;18.206;2022-10-23T14:01:22;6.80;99.90
8684;DHT22;4379;59.744;18.206;2022-10-23T14:03:51;6.70;99.90
8684;DHT22;4379;59.744;18.206;2022-10-23T14:06:19;6.60;99.90
8684;DHT22;4379;59.744;18.206;2022-10-23T14:08:46;6.40;99.90
8684;DHT22;4379;59.744;18.206;2022-10-23T14:11:15;6.30;99.90
8684;DHT22;4379;59.744;18.206;2022-10-23T14:13:43;6.20;99.90
8684;DHT22;4379;59.744;18.206;2022-10-23T14:16:16;6.00;99.90
8684;DHT22;4379;59.744;18.206;2022-10-23T14:18:43;5.80;99.90
8684;DHT22;4379;59.744;18.206;2022-10-23T14:21:13;5.80;99.90
8684;DHT22;4379;59.744;18.206;2022-10-23T14:23:41;5.70;99.90
8684;DHT22;4379;59.744;18.206;2022-10-23T14:26:11;5.60;99.90
8684;DHT22;4379;59.744;18.206;2022-10-23T14:28:41;5.40;99.90
8684;DHT22;4379;59.744;18.206;2022-10-23T14:31:11;5.50;99.90
8684;DHT22;4379;59.744;18.206;2022-10-23T14:33:39;5.50;99.90
8684;DHT22;4379;59.744;18.206;2022-10-23T14:36:07;5.50;99.90
8684;DHT22;4379;59.744;18.206;2022-10-23T14:38:35;5.40;99.90
8684;DHT22;4379;59.744;18.206;2022-10-23T14:41:08;5.10;99.90
8684;DHT22;4379;59.744;18.206;2022-10-23T14:43:36;5.00;99.90
8684;DHT22;4379;59.744;18.206;2022-10-23T14:46:13;5.10;99.90
8684;DHT22;4379;59.744;18.206;2022-10-23T14:48:40;4.90;99.90
8684;DHT22;4379;59.744;18.206;2022-10-23T14:51:27;4.80;99.90
8684;DHT22;4379;59.744;18.206;2022-10-23T14:53:58;4.70;99.90
8684;DHT22;4379;59.744;18.206;2022-10-23T14:56:28;4.80;99.90
8684;DHT22;4379;59.744;18.206;2022-10-23T14:58:58;4.70;99.90
8684;DHT22;4379;59.744;18.206;2022-10-23T15:01:33;4.50;99.90
8684;DHT22;4379;59.744;18.206;2022-10-23T15:04:02;4.30;99.90
8684;DHT22;4379;59.744;18.206;2022-10-23T15:06:30;4.40;99.90
8684;DHT22;4379;59.744;18.206;2022-10-23T15:08:58;4.30;99.90
8684;DHT22;4379;59.744;18.206;2022-10-23T15:11:26;4.40;99.90
8684;DHT22;4379;59.744;18.206;2022-10-23T15:13:54;4.50;99.90
8684;DHT22;4379;59.744;18.206;2022-10-23T15:16:22;4.40;99.90
8684;DHT22;4379;59.744;18.206;2022-10-23T15:18:50;4.30;99.90
8684;DHT22;4379;59.744;18.206;2022-10-23T15:21:17;4.30;99.90
8684;DHT22;4379;59.744;18.206;2022-10-23T15:23:45;4.30;99.90
8684;DHT22;4379;59.744;18.206;2022-10-23T15:26:18;4.40;99.90
8684;DHT22;4379;59.744;18.206;2022-10-23T15:28:54;4.40;99.90
8684;DHT22;4379;59.744;18.206;2022-10-23T15:34:06;4.50;99.90
8684;DHT22;4379;59.744;18.206;2022-10-23T15:36:34;4.30;99.90
8684;DHT22;4379;59.744;18.206;2022-10-23T15:39:02;4.20;99.90
8684;DHT22;4379;59.744;18.206;2022-10-23T15:41:32;4.30;99.90
8684;DHT22;4379;59.744;18.206;2022-10-23T15:44:01;4.40;99.90
8684;DHT22;4379;59.744;18.206;2022-10-23T15:46:29;4.50;99.90
8684;DHT22;4379;59.744;18.206;2022-10-23T15:48:56;4.50;99.90
8684;DHT22;4379;59.744;18.206;2022-10-23T15:51:24;4.50;99.90
8684;DHT22;4379;59.744;18.206;2022-10-23T15:53:51;4.40;99.90
8684;DHT22;4379;59.744;18.206;2022-10-23T15:56:18;4.40;99.90
8684;DHT22;4379;59.744;18.206;2022-10-23T15:58:45;4.40;99.90
8684;DHT22;4379;59.744;18.206;2022-10-23T16:01:13;4.50;99.90
8684;DHT22;4379;59.744;18.206;2022-10-23T16:03:41;4.60;99.90
8684;DHT22;4379;59.744;18.206;2022-10-23T16:06:14;4.50;99.90
8684;DHT22;4379;59.744;18.206;2022-10-23T16:08:44;4.50;99.90
8684;DHT22;4379;59.744;18.206;2022-10-23T16:11:25;4.50;99.90
8684;DHT22;4379;59.744;18.206;2022-10-23T16:13:56;4.60;99.90
8684;DHT22;4379;59.744;18.206;2022-10-23T16:16:25;4.60;99.90
8684;DHT22;4379;59.744;18.206;2022-10-23T16:18:58;4.60;99.90
8684;DHT22;4379;59.744;18.206;2022-10-23T16:21:28;4.70;99.90
8684;DHT22;4379;59.744;18.206;2022-10-23T16:23:58;4.70;99.90
8684;DHT22;4379;59.744;18.206;2022-10-23T16:26:27;4.80;99.90
8684;DHT22;4379;59.744;18.206;2022-10-23T16:29:00;4.80;99.90
8684;DHT22;4379;59.744;18.206;2022-10-23T16:31:28;4.60;99.90
8684;DHT22;4379;59.744;18.206;2022-10-23T16:33:57;4.60;99.90
8684;DHT22;4379;59.744;18.206;2022-10-23T16:36:27;4.50;99.90
8684;DHT22;4379;59.744;18.206;2022-10-23T16:38:55;4.50;99.90
8684;DHT22;4379;59.744;18.206;2022-10-23T16:41:24;4.50;99.90
8684;DHT22;4379;59.744;18.206;2022-10-23T16:43:52;4.50;99.90
8684;DHT22;4379;59.744;18.206;2022-10-23T16:46:21;4.50;99.90
8684;DHT22;4379;59.744;18.206;2022-10-23T16:48:50;4.30;99.90
8684;DHT22;4379;59.744;18.206;2022-10-23T16:51:24;4.20;99.90
8684;DHT22;4379;59.744;18.206;2022-10-23T16:53:55;4.20;99.90
8684;DHT22;4379;59.744;18.206;2022-10-23T16:56:26;4.10;99.90
8684;DHT22;4379;59.744;18.206;2022-10-23T16:58:58;4.10;99.90
8684;DHT22;4379;59.744;18.206;2022-10-23T17:01:32;4.30;99.90
8684;DHT22;4379;59.744;18.206;2022-10-23T17:04:01;4.50;99.90
8684;DHT22;4379;59.744;18.206;2022-10-23T17:06:30;4.60;99.90
8684;DHT22;4379;59.744;18.206;2022-10-23T17:09:00;4.60;99.90
8684;DHT22;4379;59.744;18.206;2022-10-23T17:11:37;4.60;99.90
8684;DHT22;4379;59.744;18.206;2022-10-23T17:14:16;4.60;99.90
8684;DHT22;4379;59.744;18.206;2022-10-23T17:16:50;4.50;99.90
8684;DHT22;4379;59.744;18.206;2022-10-23T17:19:21;4.40;99.90
8684;DHT22;4379;59.744;18.206;2022-10-23T17:22:11;4.30;99.90
8684;DHT22;4379;59.744;18.206;2022-10-23T17:24:43;4.20;99.90
8684;DHT22;4379;59.744;18.206;2022-10-23T17:27:20;4.20;99.90
8684;DHT22;4379;59.744;18.206;2022-10-23T17:29:49;4.10;99.90
8684;DHT22;4379;59.744;18.206;2022-10-23T17:32:17;4.00;99.90
8684;DHT22;4379;59.744;18.206;2022-10-23T17:34:46;3.90;99.90
8684;DHT22;4379;59.744;18.206;2022-10-23T17:37:14;3.90;99.90
8684;DHT22;4379;59.744;18.206;2022-10-23T17:39:45;3.90;99.90
8684;DHT22;4379;59.744;18.206;2022-10-23T17:42:15;3.90;99.90
8684;DHT22;4379;59.744;18.206;2022-10-23T17:44:45;4.10;99.90
8684;DHT22;4379;59.744;18.206;2022-10-23T17:47:15;4.30;99.90
8684;DHT22;4379;59.744;18.206;2022-10-23T17:49:45;4.30;99.90
8684;DHT22;4379;59.744;18.206;2022-10-23T17:52:14;4.30;99.90
8684;DHT22;4379;59.744;18.206;2022-10-23T17:54:44;4.30;99.90
8684;DHT22;4379;59.744;18.206;2022-10-23T17:57:12;4.30;99.90
8684;DHT22;4379;59.744;18.206;2022-10-23T17:59:40;4.30;99.90
8684;DHT22;4379;59.744;18.206;2022-10-23T18:02:10;4.30;99.90
8684;DHT22;4379;59.744;18.206;2022-10-23T18:04:39;4.30;99.90
8684;DHT22;4379;59.744;18.206;2022-10-23T18:07:06;4.20;99.90
8684;DHT22;4379;59.744;18.206;2022-10-23T18:09:34;4.10;99.90
8684;DHT22;4379;59.744;18.206;2022-10-23T18:12:01;4.10;99.90
8684;DHT22;4379;59.744;18.206;2022-10-23T18:14:30;4.10;99.90
8684;DHT22;4379;59.744;18.206;2022-10-23T18:17:03;4.20;99.90
8684;DHT22;4379;59.744;18.206;2022-10-23T18:19:34;4.30;99.90
8684;DHT22;4379;59.744;18.206;2022-10-23T18:22:03;4.30;99.90
8684;DHT22;4379;59.744;18.206;2022-10-23T18:24:30;4.40;99.90